createdAt,value
2018-07-13T00:00:57.830Z,18.70
2018-07-13T00:03:33.189Z,18.70
2018-07-13T00:06:13.688Z,18.70
2018-07-13T00:08:48.556Z,18.60
2018-07-13T00:11:23.806Z,18.60
2018-07-13T00:14:07.517Z,18.60
2018-07-13T00:16:43.962Z,18.60
2018-07-13T00:19:19.520Z,18.60
2018-07-13T00:21:55.009Z,18.60
2018-07-13T00:24:29.912Z,18.60
2018-07-13T00:27:05.070Z,18.50
2018-07-13T00:29:40.498Z,18.50
2018-07-13T00:32:16.843Z,18.50
2018-07-13T00:34:51.685Z,18.40
2018-07-13T00:37:26.612Z,18.40
2018-07-13T00:40:01.452Z,18.40
2018-07-13T00:42:36.736Z,18.40
2018-07-13T00:45:11.802Z,18.30
2018-07-13T00:47:46.778Z,18.30
2018-07-13T00:50:21.891Z,18.30
2018-07-13T00:52:57.627Z,18.30
2018-07-13T00:55:32.570Z,18.20
2018-07-13T00:58:08.194Z,18.20
2018-07-13T01:00:43.149Z,18.20
2018-07-13T01:03:18.752Z,18.10
2018-07-13T01:05:54.219Z,18.10
2018-07-13T01:08:29.586Z,18.00
2018-07-13T01:11:05.301Z,18.00
2018-07-13T01:13:40.366Z,18.00
2018-07-13T01:16:15.157Z,18.00
2018-07-13T01:18:50.193Z,17.90
2018-07-13T01:23:59.700Z,17.90
2018-07-13T01:26:34.581Z,17.80
2018-07-13T01:29:09.438Z,17.80
2018-07-13T01:31:44.479Z,17.80
2018-07-13T01:34:19.620Z,17.80
2018-07-13T01:36:55.207Z,17.80
2018-07-13T01:39:30.110Z,17.80
2018-07-13T01:42:05.749Z,17.70
2018-07-13T01:44:40.772Z,17.70
2018-07-13T01:47:15.815Z,17.60
2018-07-13T01:49:51.182Z,17.60
2018-07-13T01:52:26.367Z,17.60
2018-07-13T01:55:01.331Z,17.60
2018-07-13T01:57:36.680Z,17.60
2018-07-13T02:00:11.675Z,17.50
2018-07-13T02:02:46.608Z,17.50
2018-07-13T02:05:22.182Z,17.40
2018-07-13T02:07:57.048Z,17.40
2018-07-13T02:10:32.059Z,17.40
2018-07-13T02:13:07.289Z,17.40
2018-07-13T02:15:47.431Z,17.40
2018-07-13T02:18:22.620Z,17.40
2018-07-13T02:20:57.585Z,17.40
2018-07-13T02:23:33.096Z,17.50
2018-07-13T02:26:07.778Z,17.40
2018-07-13T02:28:42.625Z,17.40
2018-07-13T02:31:17.538Z,17.40
2018-07-13T02:33:52.388Z,17.30
2018-07-13T02:36:27.756Z,17.30
2018-07-13T02:41:37.810Z,17.20
2018-07-13T02:44:12.608Z,17.10
2018-07-13T02:46:48.174Z,17.10
2018-07-13T02:51:57.871Z,17.10
2018-07-13T02:54:32.847Z,17.10
2018-07-13T02:57:08.028Z,17.10
2018-07-13T02:59:42.762Z,17.00
2018-07-13T03:02:18.157Z,17.00
2018-07-13T03:04:52.951Z,16.90
2018-07-13T03:07:27.889Z,17.00
2018-07-13T03:10:02.838Z,17.00
2018-07-13T03:12:38.426Z,16.90
2018-07-13T03:15:13.645Z,17.00
2018-07-13T03:17:48.874Z,16.90
2018-07-13T03:20:23.771Z,16.90
2018-07-13T03:22:59.383Z,16.80
2018-07-13T03:25:34.792Z,16.80
2018-07-13T03:28:09.756Z,16.80
2018-07-13T03:30:39.311Z,16.80
2018-07-13T03:33:14.954Z,16.80
2018-07-13T03:35:49.895Z,16.80
2018-07-13T03:41:00.459Z,16.70
2018-07-13T03:43:35.631Z,16.70
2018-07-13T03:46:10.757Z,16.70
2018-07-13T03:48:46.311Z,16.70
2018-07-13T03:51:22.739Z,16.70
2018-07-13T03:53:57.838Z,16.60
2018-07-13T03:56:32.593Z,16.60
2018-07-13T03:59:07.513Z,16.60
2018-07-13T04:01:42.842Z,16.50
2018-07-13T04:04:17.711Z,16.50
2018-07-13T04:06:52.498Z,16.50
2018-07-13T04:09:27.605Z,16.50
2018-07-13T04:12:02.939Z,16.60
2018-07-13T04:14:38.616Z,16.60
2018-07-13T04:17:14.229Z,16.60
2018-07-13T04:22:24.683Z,16.60
2018-07-13T04:25:00.026Z,16.60
2018-07-13T04:27:36.458Z,16.60
2018-07-13T04:30:11.493Z,16.60
2018-07-13T04:35:20.906Z,16.50
2018-07-13T04:37:55.805Z,16.40
2018-07-13T04:40:31.035Z,16.40
2018-07-13T04:43:05.975Z,16.50
2018-07-13T04:45:41.099Z,16.40
2018-07-13T04:48:17.030Z,16.40
2018-07-13T04:50:52.207Z,16.40
2018-07-13T04:53:26.394Z,16.50
2018-07-13T04:55:58.462Z,16.40
2018-07-13T04:58:39.171Z,16.40
2018-07-13T05:01:14.143Z,16.40
2018-07-13T05:03:43.694Z,16.50
2018-07-13T05:06:14.225Z,16.50
2018-07-13T05:08:44.346Z,16.50
2018-07-13T05:11:14.090Z,16.60
2018-07-13T05:13:43.725Z,16.60
2018-07-13T05:16:14.010Z,16.60
2018-07-13T05:18:43.985Z,16.60
2018-07-13T05:21:14.547Z,16.70
2018-07-13T05:23:44.278Z,16.70
2018-07-13T05:26:14.108Z,16.70
2018-07-13T05:28:43.608Z,16.70
2018-07-13T05:31:13.520Z,16.70
2018-07-13T05:33:43.371Z,16.70
2018-07-13T05:36:13.003Z,16.70
2018-07-13T05:38:48.649Z,16.80
2018-07-13T05:41:18.348Z,16.80
2018-07-13T05:43:47.935Z,16.90
2018-07-13T05:46:22.945Z,16.90
2018-07-13T05:48:58.465Z,16.80
2018-07-13T05:51:33.561Z,16.90
2018-07-13T05:54:08.880Z,16.90
2018-07-13T05:56:44.297Z,16.90
2018-07-13T05:59:19.466Z,16.90
2018-07-13T06:01:54.724Z,17.00
2018-07-13T06:04:31.868Z,17.00
2018-07-13T06:07:07.708Z,17.10
2018-07-13T06:09:43.571Z,17.10
2018-07-13T06:12:19.031Z,17.10
2018-07-13T06:17:32.140Z,17.20
2018-07-13T06:20:09.659Z,17.30
2018-07-13T06:22:45.104Z,17.30
2018-07-13T06:25:20.079Z,17.40
2018-07-13T06:27:55.467Z,17.40
2018-07-13T06:30:30.973Z,17.40
2018-07-13T06:35:41.322Z,17.50
2018-07-13T06:38:17.357Z,17.50
2018-07-13T06:40:52.456Z,17.50
2018-07-13T06:43:27.854Z,17.60
2018-07-13T06:46:02.760Z,17.60
2018-07-13T06:48:37.974Z,17.60
2018-07-13T06:51:13.054Z,17.70
2018-07-13T06:53:48.795Z,17.70
2018-07-13T06:56:24.235Z,17.70
2018-07-13T06:59:18.375Z,17.70
2018-07-13T07:01:53.648Z,17.70
2018-07-13T07:07:22.769Z,17.80
2018-07-13T07:09:59.011Z,17.80
2018-07-13T07:12:51.704Z,17.90
2018-07-13T07:15:28.692Z,17.90
2018-07-13T07:18:04.472Z,18.00
2018-07-13T07:20:39.647Z,18.10
2018-07-13T07:23:15.776Z,18.20
2018-07-13T07:25:51.194Z,18.20
2018-07-13T07:28:27.254Z,18.30
2018-07-13T07:31:02.969Z,18.30
2018-07-13T07:33:38.205Z,18.40
2018-07-13T07:36:13.355Z,18.50
2018-07-13T07:38:48.279Z,18.60
2018-07-13T07:41:23.298Z,18.60
2018-07-13T07:43:58.611Z,18.60
2018-07-13T07:46:33.786Z,18.60
2018-07-13T07:49:09.507Z,18.70
2018-07-13T07:51:45.340Z,18.80
2018-07-13T07:54:20.709Z,18.80
2018-07-13T07:56:55.829Z,18.80
2018-07-13T07:59:32.140Z,18.80
2018-07-13T08:02:07.453Z,18.80
2018-07-13T08:04:43.150Z,18.80
2018-07-13T08:07:18.547Z,18.80
2018-07-13T08:09:53.788Z,18.90
2018-07-13T08:12:29.139Z,18.90
2018-07-13T08:15:04.324Z,18.90
2018-07-13T08:17:40.069Z,19.00
2018-07-13T08:20:21.318Z,19.00
2018-07-13T08:22:58.450Z,19.10
2018-07-13T08:25:39.632Z,19.20
2018-07-13T08:28:16.162Z,19.20
2018-07-13T08:31:03.267Z,19.30
2018-07-13T08:33:39.106Z,19.40
2018-07-13T08:36:14.603Z,19.40
2018-07-13T08:38:49.900Z,19.60
2018-07-13T08:41:25.401Z,19.60
2018-07-13T08:43:55.252Z,19.70
2018-07-13T08:46:24.644Z,19.80
2018-07-13T08:48:55.068Z,19.90
2018-07-13T08:51:34.252Z,20.00
2018-07-13T08:54:09.589Z,20.10
2018-07-13T08:56:45.673Z,20.20
2018-07-13T08:59:21.550Z,20.30
2018-07-13T09:01:56.777Z,20.30
2018-07-13T09:04:32.301Z,20.30
2018-07-13T09:07:07.321Z,20.50
2018-07-13T09:09:43.095Z,20.50
2018-07-13T09:12:18.816Z,20.60
2018-07-13T09:14:53.760Z,20.60
2018-07-13T09:17:29.891Z,20.60
2018-07-13T09:20:06.137Z,20.70
2018-07-13T09:22:41.434Z,20.80
2018-07-13T09:25:16.567Z,20.80
2018-07-13T09:27:51.421Z,20.80
2018-07-13T09:30:26.497Z,20.90
2018-07-13T09:33:02.042Z,21.00
2018-07-13T09:35:37.804Z,21.00
2018-07-13T09:38:13.210Z,21.10
2018-07-13T09:40:48.615Z,21.10
2018-07-13T09:43:23.770Z,21.10
2018-07-13T09:45:58.939Z,21.20
2018-07-13T09:48:34.075Z,21.20
2018-07-13T09:51:09.276Z,21.20
2018-07-13T09:53:44.501Z,21.30
2018-07-13T09:56:14.686Z,21.30
2018-07-13T09:58:44.495Z,21.30
2018-07-13T10:01:21.732Z,21.40
2018-07-13T10:03:51.312Z,21.50
2018-07-13T10:06:21.241Z,21.60
2018-07-13T10:08:51.081Z,21.60
2018-07-13T10:11:20.661Z,21.70
2018-07-13T10:13:50.863Z,21.80
2018-07-13T10:16:20.739Z,21.80
2018-07-13T10:18:56.330Z,21.90
2018-07-13T10:21:32.722Z,21.90
2018-07-13T10:24:16.361Z,21.90
2018-07-13T10:26:52.540Z,22.00
2018-07-13T10:29:31.299Z,22.00
2018-07-13T10:32:06.952Z,22.00
2018-07-13T10:34:43.465Z,22.00
2018-07-13T10:37:18.523Z,22.00
2018-07-13T10:39:54.257Z,22.20
2018-07-13T10:42:29.587Z,22.40
2018-07-13T10:45:05.169Z,22.40
2018-07-13T10:47:40.456Z,22.50
2018-07-13T10:50:16.128Z,22.60
2018-07-13T10:52:51.462Z,22.80
2018-07-13T10:55:26.909Z,22.80
2018-07-13T11:00:41.584Z,22.80
2018-07-13T11:03:16.975Z,22.70
2018-07-13T11:05:52.536Z,22.70
2018-07-13T11:08:28.073Z,22.70
2018-07-13T11:11:03.797Z,22.90
2018-07-13T11:13:38.821Z,23.10
2018-07-13T11:16:08.314Z,23.40
2018-07-13T11:18:44.019Z,23.50
2018-07-13T11:21:19.188Z,23.50
2018-07-13T11:23:54.535Z,23.40
2018-07-13T11:26:29.763Z,23.40
2018-07-13T11:31:39.738Z,23.60
2018-07-13T11:34:15.000Z,23.60
2018-07-13T11:36:53.093Z,23.60
2018-07-13T11:39:28.217Z,23.50
2018-07-13T11:42:03.233Z,23.40
2018-07-13T11:44:38.688Z,23.40
2018-07-13T11:47:13.627Z,23.50
2018-07-13T11:49:48.963Z,23.60
2018-07-13T11:52:24.161Z,23.70
2018-07-13T11:54:59.455Z,23.70
2018-07-13T11:57:34.589Z,23.80
2018-07-13T12:00:09.898Z,23.90
2018-07-13T12:02:45.540Z,24.00
2018-07-13T12:05:21.321Z,24.00
2018-07-13T12:07:56.971Z,24.00
2018-07-13T12:10:32.929Z,23.90
2018-07-13T12:13:07.940Z,23.90
2018-07-13T12:15:43.381Z,24.00
2018-07-13T12:18:18.675Z,24.00
2018-07-13T12:20:54.155Z,24.10
2018-07-13T12:23:29.693Z,24.20
2018-07-13T12:26:04.834Z,24.40
2018-07-13T12:28:40.272Z,24.50
2018-07-13T12:31:15.590Z,24.50
2018-07-13T12:33:51.001Z,24.60
2018-07-13T12:36:26.198Z,24.60
2018-07-13T12:39:01.139Z,24.60
2018-07-13T12:41:36.288Z,24.70
2018-07-13T12:44:11.554Z,24.80
2018-07-13T12:46:47.888Z,24.90
2018-07-13T12:49:23.308Z,25.00
2018-07-13T12:51:58.866Z,25.00
2018-07-13T12:54:34.729Z,25.20
2018-07-13T12:57:10.247Z,25.40
2018-07-13T12:59:45.471Z,25.40
2018-07-13T13:02:21.081Z,25.50
2018-07-13T13:04:56.443Z,25.50
2018-07-13T13:07:31.400Z,25.50
2018-07-13T13:10:06.636Z,25.50
2018-07-13T13:12:41.505Z,25.60
2018-07-13T13:15:16.992Z,25.70
2018-07-13T13:20:21.172Z,25.90
2018-07-13T13:22:56.597Z,25.80
2018-07-13T13:25:31.591Z,25.80
2018-07-13T13:28:06.858Z,25.90
2018-07-13T13:30:41.958Z,26.10
2018-07-13T13:33:17.166Z,26.20
2018-07-13T13:35:52.421Z,26.30
2018-07-13T13:38:23.552Z,26.30
2018-07-13T13:40:58.683Z,26.40
2018-07-13T13:43:33.934Z,26.30
2018-07-13T13:46:09.102Z,26.30
2018-07-13T13:48:42.723Z,26.20
2018-07-13T13:51:17.881Z,26.20
2018-07-13T13:53:53.408Z,26.20
2018-07-13T13:56:28.629Z,26.10
2018-07-13T13:59:03.545Z,26.10
2018-07-13T14:01:38.822Z,26.10
2018-07-13T14:04:14.705Z,26.20
2018-07-13T14:06:49.825Z,26.20
2018-07-13T14:09:24.999Z,26.30
2018-07-13T14:12:00.650Z,26.40
2018-07-13T14:14:36.095Z,26.40
2018-07-13T14:17:11.499Z,26.40
2018-07-13T14:19:46.900Z,26.40
2018-07-13T14:22:21.774Z,26.40
2018-07-13T14:24:57.040Z,26.40
2018-07-13T14:27:32.285Z,26.50
2018-07-13T14:30:08.065Z,26.50
2018-07-13T14:32:43.546Z,26.60
2018-07-13T14:35:18.813Z,26.60
2018-07-13T14:37:53.955Z,26.60
2018-07-13T14:40:29.142Z,26.70
2018-07-13T14:43:09.987Z,26.70
2018-07-13T14:45:50.124Z,26.70
2018-07-13T14:48:25.654Z,26.70
2018-07-13T14:51:00.693Z,26.70
2018-07-13T14:53:36.038Z,26.70
2018-07-13T14:56:11.932Z,26.80
2018-07-13T14:58:47.464Z,26.90
2018-07-13T15:01:22.967Z,26.90
2018-07-13T15:03:58.534Z,27.00
2018-07-13T15:06:34.079Z,27.00
2018-07-13T15:09:09.502Z,27.00
2018-07-13T15:11:44.950Z,27.10
2018-07-13T15:14:19.901Z,27.20
2018-07-13T15:16:55.323Z,27.20
2018-07-13T15:19:30.222Z,27.30
2018-07-13T15:22:05.493Z,27.20
2018-07-13T15:24:40.641Z,27.30
2018-07-13T15:27:15.873Z,27.20
2018-07-13T15:29:51.583Z,27.30
2018-07-13T15:32:27.147Z,27.40
2018-07-13T15:35:03.023Z,27.50
2018-07-13T15:37:38.032Z,27.60
2018-07-13T15:40:13.456Z,27.60
2018-07-13T15:42:48.897Z,27.70
2018-07-13T15:45:23.882Z,27.70
2018-07-13T15:47:58.996Z,27.80
2018-07-13T15:50:34.191Z,27.80
2018-07-13T15:53:03.659Z,27.90
2018-07-13T15:55:43.919Z,27.90
2018-07-13T15:58:19.100Z,27.80
2018-07-13T16:00:54.483Z,27.80
2018-07-13T16:03:29.455Z,27.80
2018-07-13T16:08:39.240Z,28.00
2018-07-13T16:11:14.779Z,27.90
2018-07-13T16:13:50.322Z,27.90
2018-07-13T16:16:25.625Z,27.80
2018-07-13T16:19:01.931Z,27.80
2018-07-13T16:21:37.343Z,27.70
2018-07-13T16:24:15.343Z,27.70
2018-07-13T16:26:50.578Z,27.70
2018-07-13T16:32:00.479Z,27.70
2018-07-13T16:34:36.126Z,27.70
2018-07-13T16:37:11.522Z,27.70
2018-07-13T16:39:47.329Z,27.70
2018-07-13T16:42:22.488Z,27.70
2018-07-13T16:44:58.374Z,27.70
2018-07-13T16:47:34.587Z,27.70
2018-07-13T16:50:09.936Z,27.70
2018-07-13T16:52:45.849Z,27.70
2018-07-13T16:55:20.996Z,27.70
2018-07-13T16:57:56.217Z,27.70
2018-07-13T17:00:31.825Z,27.70
2018-07-13T17:03:07.564Z,27.70
2018-07-13T17:05:42.869Z,27.70
2018-07-13T17:08:18.055Z,27.70
2018-07-13T17:10:48.278Z,27.70
2018-07-13T17:13:23.320Z,27.60
2018-07-13T17:15:58.452Z,27.60
2018-07-13T17:18:33.601Z,27.50
2018-07-13T17:21:09.318Z,27.50
2018-07-13T17:23:44.538Z,27.50
2018-07-13T17:26:19.786Z,27.40
2018-07-13T17:28:55.218Z,27.40
2018-07-13T17:31:30.792Z,27.30
2018-07-13T17:34:05.934Z,27.30
2018-07-13T17:36:41.241Z,27.30
2018-07-13T17:39:16.451Z,27.20
2018-07-13T17:41:51.918Z,27.20
2018-07-13T17:44:27.504Z,27.20
2018-07-13T17:47:02.701Z,27.10
2018-07-13T17:49:38.141Z,27.10
2018-07-13T17:52:13.100Z,27.10
2018-07-13T17:54:48.121Z,27.10
2018-07-13T17:57:23.348Z,27.10
2018-07-13T17:59:58.395Z,27.10
2018-07-13T18:02:33.415Z,27.00
2018-07-13T18:05:09.467Z,26.90
2018-07-13T18:07:45.021Z,26.80
2018-07-13T18:10:20.431Z,26.70
2018-07-13T18:12:56.116Z,26.70
2018-07-13T18:15:31.683Z,26.70
2018-07-13T18:18:06.852Z,26.60
2018-07-13T18:20:42.344Z,26.60
2018-07-13T18:23:17.652Z,26.60
2018-07-13T18:25:53.170Z,26.60
2018-07-13T18:28:28.724Z,26.50
2018-07-13T18:31:04.970Z,26.40
2018-07-13T18:33:40.057Z,26.40
2018-07-13T18:36:15.115Z,26.20
2018-07-13T18:38:52.838Z,26.20
2018-07-13T18:41:28.041Z,26.10
2018-07-13T18:44:03.371Z,26.00
2018-07-13T18:46:38.548Z,25.90
2018-07-13T18:49:13.755Z,25.80
2018-07-13T18:51:48.843Z,25.70
2018-07-13T18:54:23.637Z,25.60
2018-07-13T18:56:53.243Z,25.50
2018-07-13T18:59:28.261Z,25.40
2018-07-13T19:02:04.008Z,25.30
2018-07-13T19:04:39.439Z,25.30
2018-07-13T19:07:14.829Z,25.20
2018-07-13T19:09:50.319Z,25.10
2018-07-13T19:12:25.793Z,25.00
2018-07-13T19:15:01.309Z,25.00
2018-07-13T19:17:36.959Z,24.90
2018-07-13T19:20:12.515Z,24.90
2018-07-13T19:22:48.007Z,24.80
2018-07-13T19:25:21.409Z,24.70
2018-07-13T19:27:56.783Z,24.60
2018-07-13T19:30:31.816Z,24.60
2018-07-13T19:33:07.294Z,24.50
2018-07-13T19:35:42.571Z,24.40
2018-07-13T19:38:18.661Z,24.40
2018-07-13T19:40:55.288Z,24.30
2018-07-13T19:43:30.901Z,24.20
2018-07-13T19:46:07.449Z,24.20
2018-07-13T19:48:42.915Z,24.10
2018-07-13T19:51:22.931Z,24.10
2018-07-13T19:53:58.240Z,24.10
2018-07-13T19:56:33.425Z,24.10
2018-07-13T19:59:08.914Z,24.00
2018-07-13T20:01:43.846Z,24.00
2018-07-13T20:04:19.535Z,23.90
2018-07-13T20:06:54.682Z,23.80
2018-07-13T20:09:30.142Z,23.70
2018-07-13T20:12:05.423Z,23.70
2018-07-13T20:14:40.313Z,23.70
2018-07-13T20:17:15.572Z,23.60
2018-07-13T20:19:50.824Z,23.60
2018-07-13T20:22:26.432Z,23.50
2018-07-13T20:27:36.588Z,23.40
2018-07-13T20:30:11.983Z,23.40
2018-07-13T20:32:47.223Z,23.30
2018-07-13T20:35:22.102Z,23.30
2018-07-13T20:37:57.209Z,23.20
2018-07-13T20:40:32.351Z,23.10
2018-07-13T20:43:07.314Z,23.10
2018-07-13T20:45:42.351Z,23.10
2018-07-13T20:48:17.626Z,23.00
2018-07-13T20:50:53.248Z,23.00
2018-07-13T20:53:28.223Z,23.00
2018-07-13T20:56:08.932Z,23.00
2018-07-13T20:58:44.298Z,23.00
2018-07-13T21:01:19.402Z,23.00
2018-07-13T21:03:54.787Z,23.00
2018-07-13T21:06:30.174Z,22.90
2018-07-13T21:09:05.765Z,22.90
2018-07-13T21:11:40.799Z,22.80
2018-07-13T21:14:17.133Z,22.80
2018-07-13T21:16:52.556Z,22.70
2018-07-13T21:19:27.833Z,22.70
2018-07-13T21:22:03.428Z,22.60
2018-07-13T21:24:38.807Z,22.60
2018-07-13T21:27:13.839Z,22.50
2018-07-13T21:29:49.318Z,22.50
2018-07-13T21:32:24.989Z,22.50
2018-07-13T21:35:00.921Z,22.40
2018-07-13T21:37:35.994Z,22.40
2018-07-13T21:40:15.514Z,22.30
2018-07-13T21:42:51.468Z,22.20
2018-07-13T21:45:27.843Z,22.20
2018-07-13T21:48:02.916Z,22.20
2018-07-13T21:50:38.723Z,22.10
2018-07-13T21:53:14.535Z,22.10
2018-07-13T21:55:50.584Z,22.00
2018-07-13T21:58:26.388Z,22.00
2018-07-13T22:01:01.809Z,21.90
2018-07-13T22:03:37.033Z,21.90
2018-07-13T22:06:12.738Z,21.90
2018-07-13T22:11:22.433Z,21.80
2018-07-13T22:13:57.977Z,21.80
2018-07-13T22:16:33.464Z,21.80
2018-07-13T22:19:08.314Z,21.80
2018-07-13T22:21:43.502Z,21.80
2018-07-13T22:24:19.539Z,21.70
2018-07-13T22:26:54.508Z,21.70
2018-07-13T22:29:29.490Z,21.60
2018-07-13T22:32:04.567Z,21.60
2018-07-13T22:34:39.686Z,21.60
2018-07-13T22:37:14.942Z,21.60
2018-07-13T22:39:50.583Z,21.50
2018-07-13T22:42:25.989Z,21.50
2018-07-13T22:45:01.817Z,21.50
2018-07-13T22:47:37.181Z,21.50
2018-07-13T22:50:13.791Z,21.40
2018-07-13T22:52:49.459Z,21.40
2018-07-13T22:55:25.508Z,21.40
2018-07-13T22:58:02.988Z,21.30
2018-07-13T23:00:39.875Z,21.20
2018-07-13T23:03:14.999Z,21.20
2018-07-13T23:08:25.935Z,21.10
2018-07-13T23:11:01.149Z,21.00
2018-07-13T23:13:37.107Z,21.00
2018-07-13T23:16:12.299Z,20.90
2018-07-13T23:18:47.411Z,20.90
2018-07-13T23:21:22.531Z,20.80
2018-07-13T23:23:58.018Z,20.80
2018-07-13T23:26:33.148Z,20.70
2018-07-13T23:29:07.956Z,20.70
2018-07-13T23:31:43.196Z,20.60
2018-07-13T23:36:52.887Z,20.60
2018-07-13T23:39:27.946Z,20.50
2018-07-13T23:42:03.209Z,20.50
2018-07-13T23:44:38.262Z,20.40
2018-07-13T23:47:13.367Z,20.30
2018-07-13T23:49:48.939Z,20.30
2018-07-13T23:52:24.310Z,20.30
2018-07-13T23:54:59.391Z,20.20
2018-07-13T23:57:34.658Z,20.20
